createdAt,value
2019-06-20T00:01:50.242Z,39.09
2019-06-20T00:04:18.791Z,40.11
2019-06-20T00:06:46.751Z,39.74
2019-06-20T00:09:14.405Z,39.63
2019-06-20T00:11:41.967Z,40.03
2019-06-20T00:14:09.390Z,39.86
2019-06-20T00:16:36.837Z,39.57
2019-06-20T00:19:04.663Z,39.95
2019-06-20T00:21:32.374Z,40.08
2019-06-20T00:24:00.982Z,39.98
2019-06-20T00:26:28.412Z,39.85
2019-06-20T00:28:55.837Z,39.92
2019-06-20T00:31:23.255Z,39.91
2019-06-20T00:33:50.670Z,40.01
2019-06-20T00:36:18.162Z,40.02
2019-06-20T00:38:51.277Z,40.09
2019-06-20T00:41:18.700Z,40.18
2019-06-20T00:43:46.464Z,40.22
2019-06-20T00:46:13.891Z,40.31
2019-06-20T00:48:41.308Z,40.50
2019-06-20T00:51:08.733Z,40.51
2019-06-20T00:53:36.655Z,40.53
2019-06-20T00:56:04.104Z,40.65
2019-06-20T00:58:31.525Z,40.56
2019-06-20T01:00:58.929Z,40.35
2019-06-20T01:03:26.404Z,40.44
2019-06-20T01:05:53.835Z,40.68
2019-06-20T01:08:21.272Z,40.62
2019-06-20T01:10:48.753Z,40.81
2019-06-20T01:13:29.722Z,40.61
2019-06-20T01:15:43.828Z,40.76
2019-06-20T01:18:11.232Z,40.77
2019-06-20T01:20:38.659Z,40.83
2019-06-20T01:23:06.087Z,41.01
2019-06-20T01:25:43.598Z,41.31
2019-06-20T01:28:11.080Z,41.52
2019-06-20T01:30:38.519Z,41.64
2019-06-20T01:33:05.934Z,41.71
2019-06-20T01:35:33.335Z,41.93
2019-06-20T01:38:00.780Z,42.27
2019-06-20T01:40:28.226Z,42.98
2019-06-20T01:42:55.819Z,44.51
2019-06-20T01:45:23.266Z,46.70
2019-06-20T01:47:51.406Z,49.52
2019-06-20T01:50:19.009Z,51.02
2019-06-20T01:52:46.431Z,52.45
2019-06-20T01:55:13.875Z,54.28
2019-06-20T01:57:41.288Z,55.41
2019-06-20T02:00:08.756Z,56.42
2019-06-20T02:02:36.207Z,59.07
2019-06-20T02:05:04.277Z,61.41
2019-06-20T02:07:31.690Z,62.78
2019-06-20T02:09:59.123Z,64.01
2019-06-20T02:12:26.550Z,65.29
2019-06-20T02:14:54.105Z,65.48
2019-06-20T02:17:21.538Z,65.65
2019-06-20T02:19:49.121Z,66.04
2019-06-20T02:22:16.720Z,66.91
2019-06-20T02:24:44.137Z,67.08
2019-06-20T02:27:11.556Z,68.44
2019-06-20T02:29:39.008Z,69.08
2019-06-20T02:32:05.978Z,68.33
2019-06-20T02:34:33.433Z,68.38
2019-06-20T02:37:00.874Z,68.91
2019-06-20T02:39:28.334Z,68.98
2019-06-20T02:41:55.770Z,69.91
2019-06-20T02:44:29.805Z,69.05
2019-06-20T02:46:51.037Z,69.13
2019-06-20T02:49:18.487Z,69.59
2019-06-20T02:51:45.902Z,69.89
2019-06-20T02:54:13.329Z,69.69
2019-06-20T02:56:40.741Z,69.97
2019-06-20T02:59:08.238Z,69.51
2019-06-20T03:01:35.651Z,70.63
2019-06-20T03:04:03.068Z,69.20
2019-06-20T03:06:30.533Z,68.07
2019-06-20T03:08:57.922Z,68.31
2019-06-20T03:11:25.396Z,68.35
2019-06-20T03:13:52.815Z,67.96
2019-06-20T03:16:22.460Z,67.78
2019-06-20T03:18:49.866Z,68.66
2019-06-20T03:21:17.384Z,69.46
2019-06-20T03:23:44.818Z,69.12
2019-06-20T03:26:12.285Z,69.34
2019-06-20T03:28:39.692Z,69.96
2019-06-20T03:31:07.113Z,70.12
2019-06-20T03:33:34.551Z,70.16
2019-06-20T03:36:02.122Z,70.79
2019-06-20T03:38:29.520Z,71.28
2019-06-20T03:40:56.951Z,72.01
2019-06-20T03:43:25.443Z,72.20
2019-06-20T03:45:52.973Z,71.84
2019-06-20T03:48:20.783Z,74.10
2019-06-20T03:50:48.300Z,75.92
2019-06-20T03:53:15.789Z,75.46
2019-06-20T03:55:43.326Z,73.25
2019-06-20T03:58:10.747Z,71.81
2019-06-20T04:00:38.157Z,71.32
2019-06-20T04:03:05.565Z,73.69
2019-06-20T04:05:32.983Z,74.92
2019-06-20T04:08:00.552Z,74.41
2019-06-20T04:10:27.991Z,75.19
2019-06-20T04:12:55.422Z,75.74
2019-06-20T04:15:22.817Z,76.79
2019-06-20T04:17:50.337Z,77.61
2019-06-20T04:20:17.744Z,77.37
2019-06-20T04:22:45.169Z,77.42
2019-06-20T04:25:12.702Z,77.90
2019-06-20T04:27:40.106Z,77.84
2019-06-20T04:30:07.556Z,78.08
2019-06-20T04:32:35.347Z,77.75
2019-06-20T04:35:03.332Z,78.44
2019-06-20T04:37:30.737Z,78.23
2019-06-20T04:39:58.166Z,78.16
2019-06-20T04:42:25.652Z,78.21
2019-06-20T04:44:53.087Z,77.90
2019-06-20T04:47:20.541Z,77.57
2019-06-20T04:49:47.981Z,77.76
2019-06-20T04:52:15.407Z,77.60
2019-06-20T04:54:42.831Z,78.09
2019-06-20T04:57:10.421Z,77.82
2019-06-20T04:59:37.837Z,77.15
2019-06-20T05:02:05.267Z,77.26
2019-06-20T05:04:33.146Z,76.61
2019-06-20T05:07:05.061Z,75.68
2019-06-20T05:09:32.596Z,76.18
2019-06-20T05:12:00.086Z,76.49
2019-06-20T05:14:27.478Z,76.41
2019-06-20T05:16:55.044Z,76.36
2019-06-20T05:19:22.462Z,76.24
2019-06-20T05:21:49.876Z,76.09
2019-06-20T05:24:17.325Z,76.05
2019-06-20T05:26:44.759Z,75.86
2019-06-20T05:29:12.311Z,75.89
2019-06-20T05:31:39.759Z,75.35
2019-06-20T05:34:07.247Z,75.34
2019-06-20T05:36:34.922Z,75.00
2019-06-20T05:39:02.359Z,74.34
2019-06-20T05:41:30.027Z,73.63
2019-06-20T05:43:57.503Z,73.78
2019-06-20T05:46:24.944Z,73.15
2019-06-20T05:48:52.387Z,72.12
2019-06-20T05:51:20.059Z,71.92
2019-06-20T05:53:47.477Z,71.14
2019-06-20T05:56:14.986Z,71.72
2019-06-20T05:58:42.449Z,72.65
2019-06-20T06:01:09.942Z,72.62
2019-06-20T06:03:37.375Z,72.18
2019-06-20T06:06:04.814Z,72.03
2019-06-20T06:08:32.241Z,72.49
2019-06-20T06:10:59.704Z,72.80
2019-06-20T06:13:27.113Z,73.93
2019-06-20T06:15:54.615Z,75.03
2019-06-20T06:18:22.048Z,75.98
2019-06-20T06:20:49.553Z,76.93
2019-06-20T06:23:16.988Z,77.68
2019-06-20T06:25:44.461Z,77.86
2019-06-20T06:28:12.659Z,78.67
2019-06-20T06:30:39.740Z,79.45
2019-06-20T06:33:07.255Z,80.48
2019-06-20T06:35:34.689Z,80.70
2019-06-20T06:38:02.147Z,81.11
2019-06-20T06:40:29.631Z,80.96
2019-06-20T06:42:57.046Z,81.45
2019-06-20T06:45:24.470Z,81.34
2019-06-20T06:47:51.922Z,81.32
2019-06-20T06:50:20.622Z,82.23
2019-06-20T06:52:48.047Z,81.71
2019-06-20T06:55:15.474Z,81.38
2019-06-20T06:57:43.114Z,81.73
2019-06-20T07:00:10.817Z,81.63
2019-06-20T07:02:38.257Z,82.04
2019-06-20T07:05:05.710Z,81.78
2019-06-20T07:07:33.199Z,80.39
2019-06-20T07:10:00.879Z,80.99
2019-06-20T07:12:28.303Z,79.07
2019-06-20T07:14:55.709Z,76.69
2019-06-20T07:17:23.336Z,77.06
2019-06-20T07:19:50.756Z,77.50
2019-06-20T07:22:18.187Z,77.53
2019-06-20T07:24:45.729Z,77.89
2019-06-20T07:27:13.160Z,76.83
2019-06-20T07:29:40.935Z,76.25
2019-06-20T07:32:09.196Z,76.53
2019-06-20T07:34:36.607Z,76.57
2019-06-20T07:37:04.056Z,76.82
2019-06-20T07:39:31.617Z,75.69
2019-06-20T07:41:59.041Z,75.65
2019-06-20T07:44:26.535Z,74.42
2019-06-20T07:46:54.052Z,75.46
2019-06-20T07:49:21.557Z,73.58
2019-06-20T07:51:49.009Z,72.23
2019-06-20T07:54:16.428Z,73.30
2019-06-20T07:56:43.896Z,74.41
2019-06-20T07:59:11.344Z,73.66
2019-06-20T08:01:39.429Z,72.79
2019-06-20T08:04:06.870Z,71.47
2019-06-20T08:06:34.421Z,70.40
2019-06-20T08:09:02.053Z,69.58
2019-06-20T08:11:29.480Z,68.42
2019-06-20T08:13:56.971Z,68.88
2019-06-20T08:16:24.589Z,69.25
2019-06-20T08:18:52.045Z,69.74
2019-06-20T08:21:19.478Z,69.61
2019-06-20T08:23:47.250Z,69.52
2019-06-20T08:26:14.692Z,70.52
2019-06-20T08:28:42.144Z,70.58
2019-06-20T08:31:09.575Z,70.04
2019-06-20T08:33:37.053Z,69.47
2019-06-20T08:36:04.668Z,69.05
2019-06-20T08:38:31.985Z,68.42
2019-06-20T08:41:00.216Z,67.83
2019-06-20T08:43:28.015Z,67.49
2019-06-20T08:45:56.727Z,67.78
2019-06-20T08:48:23.167Z,66.02
2019-06-20T08:50:50.694Z,65.56
2019-06-20T08:53:18.186Z,64.49
2019-06-20T08:55:45.653Z,63.73
2019-06-20T08:58:13.173Z,63.15
2019-06-20T09:00:40.757Z,62.41
2019-06-20T09:03:08.214Z,62.26
2019-06-20T09:05:35.621Z,60.57
2019-06-20T09:10:34.043Z,59.11
2019-06-20T09:13:01.515Z,57.88
2019-06-20T09:15:29.064Z,57.42
2019-06-20T09:17:56.829Z,56.63
2019-06-20T09:20:24.049Z,56.87
2019-06-20T09:22:52.313Z,55.84
2019-06-20T09:25:18.961Z,54.84
2019-06-20T09:27:46.377Z,53.77
2019-06-20T09:30:13.823Z,53.09
2019-06-20T09:32:41.504Z,52.24
2019-06-20T09:35:09.043Z,52.14
2019-06-20T09:37:36.458Z,53.63
2019-06-20T09:40:05.630Z,54.23
2019-06-20T09:42:36.790Z,54.26
2019-06-20T09:45:02.833Z,54.59
2019-06-20T09:47:28.959Z,54.41
2019-06-20T09:49:57.698Z,54.37
2019-06-20T09:52:24.065Z,54.33
2019-06-20T09:54:51.779Z,52.47
2019-06-20T09:57:19.006Z,51.66
2019-06-20T09:59:59.469Z,51.11
2019-06-20T10:02:14.931Z,50.60
2019-06-20T10:04:42.378Z,51.71
2019-06-20T10:07:10.042Z,50.87
2019-06-20T10:09:37.508Z,49.29
2019-06-20T10:12:05.027Z,46.79
2019-06-20T10:14:32.418Z,46.27
2019-06-20T10:16:59.878Z,46.59
2019-06-20T10:19:28.010Z,47.19
2019-06-20T10:21:56.042Z,46.53
2019-06-20T10:24:22.894Z,45.62
2019-06-20T10:26:51.521Z,46.50
2019-06-20T10:29:17.796Z,47.56
2019-06-20T10:31:47.406Z,46.44
2019-06-20T10:34:13.463Z,46.13
2019-06-20T10:36:41.093Z,47.55
2019-06-20T10:39:08.505Z,46.92
2019-06-20T10:41:36.004Z,46.27
2019-06-20T10:44:03.408Z,45.38
2019-06-20T10:46:31.759Z,45.02
2019-06-20T10:48:59.173Z,44.68
2019-06-20T10:51:47.615Z,44.34
2019-06-20T10:54:14.640Z,43.11
2019-06-20T10:56:43.683Z,43.52
2019-06-20T10:59:10.006Z,42.62
2019-06-20T11:01:37.580Z,42.99
2019-06-20T11:04:05.165Z,44.29
2019-06-20T11:06:32.673Z,45.42
2019-06-20T11:09:00.211Z,46.17
2019-06-20T11:11:28.086Z,46.58
2019-06-20T11:13:55.689Z,46.65
2019-06-20T11:16:23.123Z,47.27
2019-06-20T11:18:50.538Z,46.71
2019-06-20T11:21:17.987Z,46.35
2019-06-20T11:23:45.423Z,46.09
2019-06-20T11:26:12.910Z,44.61
2019-06-20T11:28:41.324Z,44.70
2019-06-20T11:31:07.810Z,44.75
2019-06-20T11:33:36.492Z,44.03
2019-06-20T11:36:02.846Z,43.27
2019-06-20T11:38:30.370Z,42.25
2019-06-20T11:40:57.770Z,42.31
2019-06-20T11:43:25.650Z,42.16
2019-06-20T11:45:53.081Z,41.27
2019-06-20T11:48:20.527Z,41.69
2019-06-20T11:50:48.656Z,41.75
2019-06-20T11:53:15.546Z,40.34
2019-06-20T11:55:42.645Z,39.59
2019-06-20T11:58:09.590Z,39.61
2019-06-20T12:00:36.667Z,40.09
2019-06-20T12:03:03.652Z,38.96
2019-06-20T12:05:30.670Z,38.70
2019-06-20T12:07:57.702Z,37.77
2019-06-20T12:10:24.699Z,37.43
2019-06-20T12:12:51.787Z,37.33
2019-06-20T12:15:18.773Z,37.46
2019-06-20T12:17:47.103Z,36.74
2019-06-20T12:20:12.758Z,37.68
2019-06-20T12:22:41.294Z,36.81
2019-06-20T12:25:06.878Z,36.80
2019-06-20T12:27:33.815Z,36.81
2019-06-20T12:30:00.856Z,35.54
2019-06-20T12:32:27.802Z,35.41
2019-06-20T12:34:54.795Z,36.16
2019-06-20T12:37:21.838Z,36.99
2019-06-20T12:39:48.829Z,37.75
2019-06-20T12:42:15.776Z,38.50
2019-06-20T12:44:44.166Z,39.26
2019-06-20T12:47:09.931Z,39.49
2019-06-20T12:49:37.312Z,40.52
2019-06-20T12:52:03.974Z,41.05
2019-06-20T12:54:31.041Z,41.20
2019-06-20T12:56:58.009Z,42.19
2019-06-20T12:59:25.008Z,42.76
2019-06-20T13:01:51.995Z,43.05
2019-06-20T13:04:19.016Z,43.31
2019-06-20T13:06:46.948Z,43.99
2019-06-20T13:09:13.074Z,44.73
2019-06-20T13:11:40.752Z,45.90
2019-06-20T13:14:07.064Z,46.88
2019-06-20T13:16:34.234Z,45.41
2019-06-20T13:19:01.180Z,45.74
2019-06-20T13:21:28.119Z,45.26
2019-06-20T13:23:55.088Z,46.14
2019-06-20T13:26:22.209Z,46.21
2019-06-20T13:29:03.309Z,46.86
2019-06-20T13:31:17.434Z,46.04
2019-06-20T13:33:44.738Z,45.17
2019-06-20T13:36:11.371Z,44.46
2019-06-20T13:38:39.926Z,44.62
2019-06-20T13:41:05.294Z,44.20
2019-06-20T13:43:32.290Z,42.11
2019-06-20T13:45:59.245Z,41.89
2019-06-20T13:48:26.286Z,40.88
2019-06-20T13:50:53.732Z,41.08
2019-06-20T13:53:20.707Z,41.18
2019-06-20T13:55:47.876Z,40.78
2019-06-20T13:58:14.824Z,40.76
2019-06-20T14:00:45.036Z,40.68
2019-06-20T14:03:09.469Z,39.04
2019-06-20T14:05:36.434Z,38.92
2019-06-20T14:08:03.514Z,36.93
2019-06-20T14:10:30.546Z,34.63
2019-06-20T14:12:57.514Z,33.59
2019-06-20T14:15:24.494Z,34.17
2019-06-20T14:17:51.573Z,34.26
2019-06-20T14:20:18.778Z,34.18
2019-06-20T14:22:45.726Z,34.70
2019-06-20T14:25:12.831Z,34.98
2019-06-20T14:27:40.038Z,35.96
2019-06-20T14:30:07.714Z,37.29
2019-06-20T14:32:34.670Z,37.31
2019-06-20T14:35:01.666Z,37.02
2019-06-20T14:37:28.651Z,36.63
2019-06-20T14:39:57.042Z,35.80
2019-06-20T14:42:22.562Z,34.10
2019-06-20T14:44:49.889Z,34.47
2019-06-20T14:47:16.568Z,34.37
2019-06-20T14:49:43.628Z,33.76
2019-06-20T14:52:10.614Z,33.58
2019-06-20T14:54:37.634Z,32.66
2019-06-20T14:57:04.588Z,33.11
2019-06-20T14:59:31.604Z,33.88
2019-06-20T15:01:58.598Z,34.56
2019-06-20T15:04:25.589Z,34.95
2019-06-20T15:06:52.766Z,35.30
2019-06-20T15:09:19.765Z,35.54
2019-06-20T15:11:48.190Z,35.26
2019-06-20T15:14:13.984Z,35.45
2019-06-20T15:16:40.938Z,36.18
2019-06-20T15:19:08.023Z,36.14
2019-06-20T15:21:35.248Z,35.80
2019-06-20T15:24:02.255Z,36.44
2019-06-20T15:26:29.271Z,36.93
2019-06-20T15:28:57.078Z,37.07
2019-06-20T15:31:23.321Z,37.27
2019-06-20T15:33:51.676Z,37.42
2019-06-20T15:36:17.914Z,37.37
2019-06-20T15:38:47.638Z,37.71
2019-06-20T15:41:13.437Z,37.91
2019-06-20T15:43:40.401Z,37.73
2019-06-20T15:46:08.101Z,37.07
2019-06-20T15:48:35.024Z,36.61
2019-06-20T15:51:02.333Z,36.95
2019-06-20T15:53:29.377Z,37.57
2019-06-20T15:55:56.360Z,37.80
2019-06-20T15:58:23.294Z,38.06
2019-06-20T16:00:50.447Z,37.70
2019-06-20T16:03:17.392Z,38.22
2019-06-20T16:05:44.413Z,38.64
2019-06-20T16:08:11.480Z,38.76
2019-06-20T16:10:38.426Z,38.79
2019-06-20T16:13:05.463Z,39.24
2019-06-20T16:15:32.433Z,39.46
2019-06-20T16:17:59.376Z,39.30
2019-06-20T16:20:26.430Z,38.96
2019-06-20T16:22:53.511Z,39.31
2019-06-20T16:25:21.099Z,38.71
2019-06-20T16:27:48.254Z,39.21
2019-06-20T16:30:15.213Z,39.47
2019-06-20T16:32:42.236Z,40.00
2019-06-20T16:35:09.400Z,39.71
2019-06-20T16:37:36.369Z,39.64
2019-06-20T16:40:06.001Z,39.35
2019-06-20T16:42:33.024Z,39.65
2019-06-20T16:45:00.021Z,39.81
2019-06-20T16:47:27.034Z,39.32
2019-06-20T16:49:54.053Z,38.72
2019-06-20T16:52:21.117Z,38.90
2019-06-20T16:54:48.186Z,38.60
2019-06-20T16:57:15.139Z,38.88
2019-06-20T16:59:42.253Z,38.95
2019-06-20T17:02:09.255Z,39.46
2019-06-20T17:04:36.562Z,40.34
2019-06-20T17:07:03.547Z,39.09
2019-06-20T17:09:30.584Z,38.82
2019-06-20T17:11:57.787Z,38.75
2019-06-20T17:14:24.737Z,39.16
2019-06-20T17:16:51.686Z,39.66
2019-06-20T17:19:18.905Z,39.57
2019-06-20T17:21:45.919Z,38.87
2019-06-20T17:24:12.912Z,39.24
2019-06-20T17:26:39.975Z,40.11
2019-06-20T17:29:06.929Z,40.60
2019-06-20T17:31:33.893Z,43.86
2019-06-20T17:34:00.852Z,46.59
2019-06-20T17:36:27.855Z,48.14
2019-06-20T17:38:54.870Z,49.96
2019-06-20T17:41:21.882Z,50.65
2019-06-20T17:43:48.850Z,51.00
2019-06-20T17:46:15.843Z,51.32
2019-06-20T17:48:42.839Z,51.41
2019-06-20T17:51:09.808Z,51.82
2019-06-20T17:53:36.815Z,52.17
2019-06-20T17:56:03.786Z,51.91
2019-06-20T17:58:30.766Z,52.23
2019-06-20T18:00:57.965Z,52.42
2019-06-20T18:03:25.027Z,52.05
2019-06-20T18:05:52.118Z,51.95
2019-06-20T18:08:19.114Z,51.79
2019-06-20T18:10:46.160Z,51.86
2019-06-20T18:13:13.171Z,51.85
2019-06-20T18:15:40.120Z,52.34
2019-06-20T18:18:07.172Z,52.65
2019-06-20T18:20:34.116Z,53.26
2019-06-20T18:23:01.342Z,53.68
2019-06-20T18:25:31.533Z,53.58
2019-06-20T18:27:55.363Z,53.10
2019-06-20T18:30:23.026Z,53.17
2019-06-20T18:32:50.216Z,52.98
2019-06-20T18:35:17.295Z,52.84
2019-06-20T18:37:44.267Z,53.20
2019-06-20T18:40:11.278Z,53.15
2019-06-20T18:42:38.313Z,53.41
2019-06-20T18:45:05.265Z,53.68
2019-06-20T18:47:32.238Z,54.26
2019-06-20T18:49:59.240Z,54.45
2019-06-20T18:52:26.272Z,54.98
2019-06-20T18:54:53.744Z,55.28
2019-06-20T18:57:20.708Z,54.95
2019-06-20T18:59:47.818Z,54.47
2019-06-20T19:02:14.831Z,54.54
2019-06-20T19:04:48.032Z,54.97
2019-06-20T19:07:08.875Z,54.80
2019-06-20T19:09:35.979Z,55.06
2019-06-20T19:12:02.976Z,54.83
2019-06-20T19:14:29.965Z,54.67
2019-06-20T19:16:56.963Z,54.74
2019-06-20T19:19:23.939Z,54.91
2019-06-20T19:21:50.919Z,55.16
2019-06-20T19:24:18.063Z,55.69
2019-06-20T19:26:45.650Z,55.72
2019-06-20T19:29:12.887Z,56.09
2019-06-20T19:31:39.956Z,55.90
2019-06-20T19:34:06.995Z,55.82
2019-06-20T19:36:33.993Z,55.95
2019-06-20T19:39:00.953Z,56.33
2019-06-20T19:41:27.982Z,56.54
2019-06-20T19:43:55.043Z,56.55
2019-06-20T19:46:22.037Z,56.84
2019-06-20T19:48:49.046Z,57.04
2019-06-20T19:51:16.162Z,57.46
2019-06-20T19:53:45.919Z,57.50
2019-06-20T19:56:10.471Z,57.57
2019-06-20T19:58:37.462Z,57.61
2019-06-20T20:01:04.507Z,57.54
2019-06-20T20:03:31.569Z,57.75
2019-06-20T20:05:58.691Z,58.17
2019-06-20T20:08:25.546Z,58.76
2019-06-20T20:10:52.512Z,58.71
2019-06-20T20:13:19.533Z,58.96
2019-06-20T20:15:46.495Z,59.20
2019-06-20T20:18:13.617Z,59.07
2019-06-20T20:20:40.604Z,58.98
2019-06-20T20:23:07.581Z,59.27
2019-06-20T20:25:34.565Z,59.58
2019-06-20T20:28:01.616Z,59.64
2019-06-20T20:30:28.665Z,60.22
2019-06-20T20:32:55.624Z,60.40
2019-06-20T20:35:35.042Z,59.96
2019-06-20T20:37:49.619Z,59.65
2019-06-20T20:40:16.863Z,59.61
2019-06-20T20:42:43.820Z,59.85
2019-06-20T20:45:11.242Z,60.23
2019-06-20T20:47:38.659Z,60.17
2019-06-20T20:50:06.088Z,59.98
2019-06-20T20:52:33.527Z,59.84
2019-06-20T20:55:01.075Z,59.80
2019-06-20T20:57:28.683Z,59.95
2019-06-20T20:59:56.130Z,60.32
2019-06-20T21:02:23.531Z,59.86
2019-06-20T21:04:51.020Z,59.11
2019-06-20T21:07:18.683Z,58.21
2019-06-20T21:09:46.231Z,57.27
2019-06-20T21:12:13.767Z,56.34
2019-06-20T21:14:41.175Z,56.23
2019-06-20T21:17:08.788Z,55.82
2019-06-20T21:19:36.194Z,55.87
2019-06-20T21:22:03.701Z,55.43
2019-06-20T21:24:31.176Z,55.28
2019-06-20T21:26:58.787Z,54.73
2019-06-20T21:29:26.170Z,54.64
2019-06-20T21:31:53.628Z,54.85
2019-06-20T21:34:21.110Z,54.96
2019-06-20T21:36:48.515Z,55.12
2019-06-20T21:39:15.931Z,55.46
2019-06-20T21:41:43.355Z,55.98
2019-06-20T21:44:10.964Z,56.91
2019-06-20T21:49:10.913Z,58.12
2019-06-20T21:51:38.356Z,58.87
2019-06-20T21:54:05.844Z,59.46
2019-06-20T21:56:33.369Z,60.20
2019-06-20T21:59:00.805Z,60.99
2019-06-20T22:01:28.271Z,61.79
2019-06-20T22:03:55.713Z,62.37
2019-06-20T22:06:24.210Z,62.63
2019-06-20T22:08:50.790Z,62.72
2019-06-20T22:11:18.610Z,62.70
2019-06-20T22:13:46.891Z,62.99
2019-06-20T22:16:14.344Z,63.26
2019-06-20T22:18:41.912Z,62.98
2019-06-20T22:21:09.559Z,62.64
2019-06-20T22:23:37.028Z,62.94
2019-06-20T22:26:04.485Z,63.23
2019-06-20T22:28:31.904Z,63.10
2019-06-20T22:30:59.343Z,62.63
2019-06-20T22:33:26.752Z,62.16
2019-06-20T22:35:54.205Z,61.55
2019-06-20T22:38:21.772Z,61.57
2019-06-20T22:40:49.234Z,61.85
2019-06-20T22:43:16.648Z,61.78
2019-06-20T22:45:44.144Z,62.16
2019-06-20T22:48:11.576Z,62.71
2019-06-20T22:50:39.011Z,63.22
2019-06-20T22:53:06.415Z,63.76
2019-06-20T22:55:33.995Z,63.88
2019-06-20T22:58:01.402Z,64.30
2019-06-20T23:00:29.223Z,64.68
2019-06-20T23:02:56.672Z,64.92
2019-06-20T23:05:24.094Z,65.19
2019-06-20T23:07:51.547Z,65.36
2019-06-20T23:10:19.122Z,65.73
2019-06-20T23:12:46.600Z,65.76
2019-06-20T23:15:14.100Z,65.66
2019-06-20T23:17:41.709Z,65.48
2019-06-20T23:20:09.143Z,65.56
2019-06-20T23:22:37.358Z,66.09
2019-06-20T23:25:04.766Z,66.71
2019-06-20T23:27:32.180Z,66.98
2019-06-20T23:29:59.594Z,67.24
2019-06-20T23:32:27.065Z,67.68
2019-06-20T23:34:54.463Z,67.93
2019-06-20T23:37:21.976Z,68.70
2019-06-20T23:39:49.457Z,69.05
2019-06-20T23:42:16.918Z,69.49
2019-06-20T23:44:44.552Z,69.97
2019-06-20T23:47:12.001Z,70.21
2019-06-20T23:49:39.492Z,70.59
2019-06-20T23:52:16.858Z,71.32
2019-06-20T23:54:44.278Z,71.20
2019-06-20T23:57:11.695Z,71.30
2019-06-20T23:59:39.136Z,71.49
